Terminal Aerodrome Forecast
Issued by NWS

Home | Current Version | Previous Version | Text Only | Print | Product List | Glossary On
Versions: 1 2 3 4 5 6 7 8 9 10 11 12 13
000
FTUS42 KTAE 202320
TAFVLD
TAF
KVLD 202320Z 2100/2124 10005KT P6SM SCT040 SCT200
     FM210300 09004KT P6SM BKN035
     FM211500 11008KT P6SM BKN035=

USA.gov is the U.S. government's official web portal to all federal, state and local government web resources and services.